Terminal Aerodrome Forecast
Issued by NWS

Home | Current Version | Previous Version | Text Only | Print | Product List | Glossary On
Versions: 1 2 3 4 5 6 7 8 9 10 11 12 13
000
FTUS46 KMTR 281700
TAFSJC
TAF
KSJC 281721Z 2818/2918 13006KT 6SM HZ FEW001 SCT005
     FM281830 13007KT P6SM FEW005
     FM282200 28005KT P6SM FEW010 SCT050
     FM290300 17007KT P6SM SCT050 BKN100
     FM290700 15006G13KT P6SM BKN030
     FM291300 12009KT 4SM -RA BR OVC025=

USA.gov is the U.S. government's official web portal to all federal, state and local government web resources and services.